Grimsby, Illinois
Current Conditions -  °F | °C
As of 4:52 PM on Friday 19 Dec 2014 (Local Time) from KMDH Reporting Station
Overcast Overcast  
Wind Chill: 32°   Ceiling: 6500
Heat Index: 36°   Visibility: 10mi
Dew Point: 27°   Wind: 5mph
Humidity: 70%   Direction: 70°ENE
Pressure: 30.28"   Gusts: NA
Location:  37.7438°N, 89.4409°W
Report Text: KMDH 192252Z AUTO 07004KT 10SM SCT033 OVC065 02/M03 A3028 RMK AO2 SLP258 T00221028
Loading
Personal Weather Stations






























Interactive Weather Map New forecast layout! Learn more

10-Day Weather Forecast

Advertisements
Track Severe Weather on mobile